Weather observations for the past three days for
Marshfield Airport
| Date | Time (edt) | Wind (kph) | Vis. (km) | Weather | Sky Cond. | Temperature (ºC) | Relative Humidity | Wind Chill (°C) | Heat Index (°C) | Pressure | Precipitation (cm) | ||||||
|---|---|---|---|---|---|---|---|---|---|---|---|---|---|---|---|---|---|
| Air | Dwpt | 6 hour | altimeter (cm) | sea level (mb) | 1 hr | 3 hr | 6 hr | ||||||||||
| Max. | Min. | ||||||||||||||||
| 07 | 02:15 | SW 7 | 16.09 | Overcast | FEW007 OVC022 | 14 | 13 | 94% | 75.46 | 0.0 | |||||||
| 07 | 01:55 | SW 6 | 14.48 | Overcast | BKN007 OVC022 | 14 | 13 | 94% | 75.49 | 0.0 | |||||||
| 07 | 01:35 | Vrbl 6 | 16.09 | Overcast | OVC006 | 14 | 13 | 94% | 75.49 | 0.0 | |||||||
| 07 | 01:15 | SW 11 G 22 | 11.27 | Overcast | OVC007 | 14 | 13 | 94% | 75.49 | 0.0 | |||||||
| 07 | 00:55 | SW 15 | 16.09 | Overcast | BKN007 OVC010 | 14 | 13 | 94% | 75.49 | 0.0 | |||||||
| 07 | 00:35 | SW 17 | 16.09 | Overcast | BKN009 OVC014 | 14 | 13 | 94% | 75.49 | 0.0 | |||||||
| 07 | 00:15 | W 11 G 24 | 0.00 | Overcast | BKN009 OVC014 | 14 | 13 | 94% | 75.49 | 0.0 | |||||||
| 06 | 23:55 | SW 20 G 35 | 16.09 | Overcast | OVC008 | 14 | 13 | 94% | 75.49 | 0.0 | |||||||
| 06 | 23:35 | SW 15 G 30 | 16.09 | Overcast | OVC007 | 14 | 13 | 94% | 75.51 | 0.0 | |||||||
| 06 | 23:15 | SW 15 G 30 | 16.09 | Overcast | OVC007 | 14 | 13 | 94% | 75.49 | 0.0 | |||||||
| 06 | 22:55 | SW 17 | 16.09 | Overcast | OVC007 | 14 | 13 | 94% | 75.46 | 0.0 | |||||||
| 06 | 22:35 | SW 13 G 28 | 16.09 | Overcast | OVC007 | 14 | 13 | 94% | 75.46 | 0.0 | |||||||
| 06 | 22:15 | SW 19 G 31 | 16.09 | Overcast | OVC008 | 14 | 13 | 94% | 75.49 | 0.0 | |||||||
| 06 | 21:55 | SW 17 G 31 | 16.09 | Overcast | OVC008 | 14 | 13 | 94% | 75.51 | 0.0 | |||||||
| 06 | 21:35 | SW 20 G 30 | 16.09 | Overcast | OVC008 | 14 | 13 | 94% | 75.51 | 0.0 | |||||||
| 06 | 21:15 | SW 24 G 37 | 16.09 | Overcast | BKN008 OVC011 | 14 | 13 | 94% | 75.54 | 0.0 | |||||||
| 06 | 20:55 | SW 20 G 39 | 16.09 | Overcast | OVC009 | 14 | 13 | 94% | 75.51 | 0.0 | 0.03 | ||||||
| 06 | 20:35 | SW 15 G 30 | 16.09 | Overcast | OVC009 | 15 | 13 | 88% | 75.54 | 0.0 | |||||||
| 06 | 20:15 | SW 15 G 30 | 16.09 | Light Rain | OVC009 | 14 | 13 | 94% | 75.54 | 0.0 | |||||||
| 06 | 19:55 | SW 19 G 35 | 3.22 | Light Rain | BKN009 OVC014 | 14 | 13 | 94% | 75.54 | 0.0 | 0.05 | ||||||
| 06 | 19:35 | SW 24 G 37 | 2.41 | Light Rain | BKN008 OVC013 | 15 | 13 | 88% | 75.54 | 0.0 | |||||||
| 06 | 19:15 | SW 24 G 35 | 2.41 | Light Rain | BKN009 OVC013 | 15 | 13 | 88% | 75.54 | 0.0 | |||||||
| 06 | 18:55 | SW 24 G 46 | 4.83 | Fog/Mist | BKN012 BKN060 | 15 | 13 | 88% | 75.54 | 0.0 | |||||||
| 06 | 18:35 | SW 22 G 37 | 16.09 | Overcast | OVC013 | 15 | 13 | 88% | 75.59 | 0.0 | |||||||
| 06 | 18:15 | SW 24 G 43 | 14.48 | Overcast | OVC016 | 16 | 13 | 83% | 75.57 | 0.0 | |||||||
| 06 | 17:55 | SW 24 G 41 | 14.48 | Mostly Cloudy | BKN016 BKN020 BKN075 | 16 | 13 | 83% | 75.57 | 0.0 | |||||||
| 06 | 17:35 | SW 24 G 44 | 11.27 | Light Rain | BKN021 BKN029 OVC090 | 17 | 14 | 83% | 75.57 | 0.0 | |||||||
| 06 | 17:15 | SW 20 G 48 | 16.09 | Overcast | BKN021 OVC090 | 17 | 13 | 77% | 75.59 | 0.0 | |||||||
| 06 | 16:55 | SW 26 G 50 | 16.09 | Mostly Cloudy | BKN022 BKN095 | 17 | 13 | 77% | 75.59 | 0.0 | |||||||
| 06 | 16:35 | SW 26 G 35 | 16.09 | Mostly Cloudy | BKN023 BKN100 | 17 | 13 | 77% | 75.62 | 0.0 | |||||||
| 06 | 16:15 | SW 22 G 48 | 9.66 | Light Rain | FEW025 | 16 | 13 | 83% | 75.62 | 0.0 | |||||||
| 06 | 15:55 | SW 37 G 57 | 14.48 | Partly Cloudy and Breezy | SCT027 SCT033 | 18 | 12 | 68% | 75.64 | 0.0 | |||||||
| 06 | 15:35 | SW 35 G 59 | 16.09 | Mostly Cloudy and Breezy | BKN028 BKN033 | 19 | 12 | 64% | 75.64 | 0.0 | |||||||
| 06 | 15:15 | SW 24 G 50 | 16.09 | Partly Cloudy | SCT028 | 19 | 12 | 64% | 75.64 | 0.0 | |||||||
| 06 | 14:35 | SW 37 G 59 | 16.09 | Fair and Breezy | CLR | 20 | 12 | 60% | 75.64 | 0.0 | |||||||
| 06 | 14:15 | SW 31 G 59 | 16.09 | A Few Clouds | FEW032 | 20 | 12 | 60% | 75.67 | 0.0 | |||||||
| 06 | 13:55 | SW 33 G 59 | 16.09 | A Few Clouds and Breezy | FEW033 | 20 | 12 | 60% | 75.69 | 0.0 | |||||||
| 06 | 13:35 | SW 33 G 54 | 16.09 | A Few Clouds and Breezy | FEW033 | 20 | 12 | 60% | 75.72 | 0.0 | |||||||
| 06 | 13:15 | SW 44 G 65 | 16.09 | A Few Clouds and Windy | FEW029 | 20 | 12 | 60% | 75.72 | 0.0 | |||||||
| 06 | 12:55 | SW 37 G 65 | 16.09 | A Few Clouds and Breezy | FEW031 | 20 | 12 | 60% | 75.74 | 0.0 | |||||||
| 06 | 12:35 | SW 26 G 56 | 16.09 | A Few Clouds | FEW034 | 20 | 12 | 60% | 75.74 | 0.0 | |||||||
| 06 | 12:15 | S 26 G 43 | 16.09 | A Few Clouds | FEW033 | 21 | 12 | 57% | 75.77 | 0.0 | |||||||
| 06 | 11:55 | SW 33 G 67 | 16.09 | Fair and Breezy | CLR | 21 | 12 | 57% | 75.79 | 0.0 | |||||||
| 06 | 11:35 | SW 31 G 54 | 16.09 | Fair | CLR | 20 | 12 | 60% | 75.82 | 0.0 | |||||||
| 06 | 11:15 | SW 41 G 57 | 16.09 | Fair and Breezy | CLR | 20 | 12 | 60% | 75.82 | 0.0 | |||||||
| 06 | 10:55 | SW 31 G 52 | 16.09 | Fair | CLR | 21 | 12 | 57% | 75.79 | 0.0 | |||||||
| 06 | 10:35 | SW 31 G 54 | 16.09 | Fair | CLR | 20 | 12 | 60% | 75.79 | 0.0 | |||||||
| 06 | 10:15 | S 24 G 43 | 16.09 | Fair | CLR | 21 | 12 | 57% | 75.79 | 0.0 | |||||||
| 06 | 09:55 | SW 26 G 54 | 16.09 | Fair | CLR | 20 | 12 | 60% | 75.82 | 0.0 | |||||||
| 06 | 09:35 | SW 30 G 46 | 16.09 | Fair | CLR | 19 | 12 | 64% | 75.84 | 0.0 | |||||||
| 06 | 09:15 | SW 30 G 46 | 16.09 | Fair | CLR | 18 | 12 | 68% | 75.84 | 0.0 | |||||||
| 06 | 08:55 | S 24 G 46 | 16.09 | Fair | CLR | 18 | 12 | 68% | 75.84 | 0.0 | |||||||
| 06 | 08:35 | SW 26 G 41 | 16.09 | Fair | CLR | 17 | 12 | 73% | 75.84 | 0.0 | |||||||
| 06 | 08:15 | SW 30 | 16.09 | Fair | CLR | 17 | 12 | 73% | 75.84 | 0.0 | |||||||
| 06 | 07:55 | SW 22 G 41 | 16.09 | A Few Clouds | FEW018 | 16 | 12 | 77% | 75.87 | 0.0 | |||||||
| 06 | 07:35 | SW 24 G 37 | 16.09 | Fair | CLR | 16 | 12 | 77% | 75.87 | 0.0 | |||||||
| 06 | 07:15 | SW 22 G 41 | 16.09 | A Few Clouds | FEW015 | 15 | 12 | 82% | 75.87 | 0.0 | |||||||
| 06 | 06:55 | SW 28 G 37 | 16.09 | A Few Clouds | FEW015 | 15 | 12 | 82% | 75.9 | 0.0 | |||||||
| 06 | 06:35 | SW 26 G 43 | 16.09 | Fair | CLR | 15 | 12 | 82% | 75.87 | 0.0 | |||||||
| 06 | 06:15 | SW 20 G 46 | 16.09 | A Few Clouds | FEW016 | 15 | 12 | 82% | 75.87 | 0.0 | |||||||
| 06 | 05:55 | SW 24 G 46 | 16.09 | A Few Clouds | FEW016 | 15 | 12 | 82% | 75.87 | 0.0 | |||||||
| 06 | 05:35 | S 17 G 37 | 16.09 | Fair | CLR | 15 | 12 | 82% | 75.87 | 0.0 | |||||||
| 06 | 05:15 | SW 31 G 48 | 16.09 | Fair | CLR | 15 | 12 | 82% | 75.87 | 0.0 | |||||||
| 06 | 04:55 | SW 26 G 48 | 16.09 | Partly Cloudy | FEW022 SCT033 | 15 | 12 | 82% | 75.87 | 0.0 | |||||||
| 06 | 04:35 | SW 28 G 44 | 16.09 | Mostly Cloudy | FEW022 FEW027 BKN034 | 15 | 12 | 82% | 75.87 | 0.0 | |||||||
| 06 | 04:15 | SW 30 G 41 | 16.09 | Partly Cloudy | FEW027 SCT033 SCT040 | 16 | 12 | 77% | 75.87 | 0.0 | |||||||
| 06 | 03:55 | SW 31 G 44 | 16.09 | Partly Cloudy | FEW027 SCT032 SCT060 | 16 | 12 | 77% | 75.87 | 0.0 | |||||||
| 06 | 03:35 | SW 28 G 57 | 16.09 | Partly Cloudy | SCT028 SCT034 SCT060 | 16 | 12 | 77% | 75.87 | 0.0 | |||||||
| 06 | 03:15 | SW 26 G 46 | 16.09 | Partly Cloudy | SCT028 SCT034 SCT060 | 16 | 12 | 77% | 75.87 | 0.0 | |||||||
| 06 | 02:55 | SW 24 G 44 | 16.09 | Partly Cloudy | FEW028 SCT034 SCT049 | 16 | 12 | 77% | 75.87 | 0.0 | |||||||
| 06 | 02:15 | SW 33 G 52 | 0.00 | Mostly Cloudy and Breezy | FEW029 SCT049 BKN070 | 16 | 11 | 72% | 75.84 | 0.0 | |||||||
| 06 | 01:55 | SW 28 G 50 | 16.09 | Partly Cloudy | FEW029 FEW039 SCT048 | 16 | 11 | 72% | 75.87 | 0.0 | |||||||
| 06 | 01:35 | SW 30 G 54 | 16.09 | Mostly Cloudy | FEW026 SCT031 BKN050 | 16 | 11 | 72% | 75.87 | 0.0 | |||||||
| 06 | 01:15 | SW 31 G 44 | 16.09 | Partly Cloudy | SCT028 SCT034 SCT055 | 16 | 11 | 72% | 75.87 | 0.0 | |||||||
| 06 | 00:55 | SW 26 G 57 | 16.09 | Mostly Cloudy | SCT028 SCT033 BKN049 | 16 | 11 | 72% | 75.9 | 0.0 | |||||||
| 06 | 00:35 | SW 24 G 52 | 16.09 | Mostly Cloudy | BKN032 | 16 | 11 | 72% | 75.9 | 0.0 | |||||||
| 06 | 00:15 | SW 30 G 46 | 16.09 | Mostly Cloudy | SCT033 BKN041 | 16 | 10 | 68% | 75.87 | 0.0 | |||||||
| 05 | 23:55 | SW 30 G 44 | 16.09 | Mostly Cloudy | BKN035 BKN041 | 16 | 10 | 68% | 75.87 | 0.0 | |||||||
| 05 | 23:35 | SW 28 G 43 | 16.09 | Mostly Cloudy | BKN036 BKN050 BKN120 | 15 | 10 | 72% | 75.87 | 0.0 | |||||||
| 05 | 23:15 | SW 31 G 56 | 16.09 | Mostly Cloudy | BKN036 BKN055 BKN120 | 16 | 9 | 63% | 75.87 | 0.0 | |||||||
| 05 | 22:55 | SW 30 G 46 | 16.09 | Mostly Cloudy | BKN036 BKN090 | 16 | 9 | 63% | 75.84 | 0.0 | |||||||
| 05 | 22:35 | SW 28 G 56 | 16.09 | Mostly Cloudy | BKN034 BKN055 | 15 | 9 | 68% | 75.84 | 0.0 | |||||||
| 05 | 22:15 | SW 26 G 54 | 16.09 | Mostly Cloudy | BKN034 BKN046 BKN050 | 16 | 9 | 63% | 75.84 | 0.0 | |||||||
| 05 | 21:55 | SW 30 G 57 | 16.09 | Mostly Cloudy | BKN036 BKN047 BKN055 | 16 | 9 | 63% | 75.84 | 0.0 | |||||||
| 05 | 21:35 | SW 31 G 52 | 16.09 | Overcast | BKN037 OVC050 | 16 | 9 | 63% | 75.84 | 0.0 | |||||||
| 05 | 21:15 | SW 28 G 50 | 16.09 | Overcast | BKN037 BKN055 OVC065 | 17 | 9 | 60% | 75.82 | 0.0 | |||||||
| 05 | 20:55 | SW 30 G 50 | 16.09 | Overcast | BKN037 BKN047 OVC060 | 17 | 9 | 60% | 75.79 | 0.0 | |||||||
| 05 | 20:35 | SW 28 G 48 | 16.09 | Mostly Cloudy | SCT036 SCT047 BKN055 | 17 | 9 | 60% | 75.79 | 0.0 | |||||||
| 05 | 20:15 | SW 31 G 56 | 16.09 | A Few Clouds | FEW050 | 17 | 9 | 60% | 75.77 | 0.0 | |||||||
| 05 | 19:55 | SW 31 G 61 | 16.09 | Fair | CLR | 17 | 8 | 56% | 75.74 | 0.0 | |||||||
| 05 | 19:35 | SW 31 G 57 | 16.09 | Fair | CLR | 18 | 8 | 52% | 75.72 | 0.0 | |||||||
| 05 | 19:15 | SW 26 G 52 | 16.09 | Fair | CLR | 18 | 8 | 52% | 75.69 | 0.0 | |||||||
| 05 | 18:55 | SW 37 G 54 | 0.00 | Fair and Breezy | CLR | 18 | 9 | 56% | 75.67 | 0.0 | |||||||
| 05 | 18:35 | SW 43 G 56 | 16.09 | Fair and Windy | CLR | 19 | 9 | 52% | 75.67 | 0.0 | |||||||
| 05 | 18:15 | SW 35 G 46 | 16.09 | Fair and Breezy | CLR | 20 | 9 | 49% | 75.64 | 0.0 | |||||||
| 05 | 17:55 | SW 26 G 39 | 16.09 | Fair | CLR | 21 | 9 | 46% | 75.64 | 0.0 | |||||||
| 05 | 17:35 | SW 28 G 48 | 16.09 | Fair | CLR | 21 | 9 | 46% | 75.64 | 0.0 | |||||||
| 05 | 17:15 | SW 30 G 61 | 16.09 | Fair | CLR | 21 | 8 | 43% | 75.62 | 0.0 | |||||||
| 05 | 16:55 | SW 30 G 46 | 16.09 | Fair | CLR | 21 | 9 | 46% | 75.64 | 0.0 | |||||||
| 05 | 16:35 | SW 24 G 39 | 16.09 | Fair | CLR | 22 | 9 | 44% | 75.64 | 0.0 | |||||||
| 05 | 16:15 | S 28 G 43 | 16.09 | Fair | CLR | 22 | 9 | 44% | 75.62 | 0.0 | |||||||
| 05 | 15:55 | S 30 G 57 | 16.09 | Fair | CLR | 23 | 9 | 41% | 75.64 | 0.0 | |||||||
| 05 | 15:35 | S 26 G 39 | 16.09 | Fair | CLR | 23 | 10 | 44% | 75.64 | 0.0 | |||||||
| 05 | 15:15 | S 28 G 43 | 16.09 | Fair | CLR | 23 | 10 | 44% | 75.64 | 0.0 | |||||||
| 05 | 14:55 | S 26 G 46 | 16.09 | Fair | CLR | 24 | 10 | 41% | 25 | 75.64 | 0.0 | ||||||
| 05 | 14:35 | SW 24 G 57 | 16.09 | Fair | CLR | 24 | 9 | 39% | 25 | 75.67 | 0.0 | ||||||
| 05 | 14:15 | S 28 G 44 | 16.09 | Fair | CLR | 24 | 11 | 44% | 25 | 75.69 | 0.0 | ||||||
| 05 | 13:55 | S 26 G 43 | 16.09 | Fair | CLR | 23 | 11 | 47% | 75.72 | 0.0 | |||||||
| 05 | 13:35 | SW 31 G 41 | 16.09 | Fair | CLR | 23 | 11 | 47% | 75.72 | 0.0 | |||||||
| 05 | 13:15 | SW 22 G 41 | 16.09 | Fair | CLR | 23 | 11 | 47% | 75.74 | 0.0 | |||||||
| 05 | 12:55 | SW 19 G 39 | 16.09 | Fair | CLR | 23 | 11 | 47% | 75.77 | 0.0 | |||||||
| 05 | 12:35 | S 19 G 33 | 16.09 | Fair | CLR | 22 | 11 | 50% | 75.74 | 0.0 | |||||||
| 05 | 12:15 | S 22 G 33 | 16.09 | Fair | CLR | 22 | 12 | 53% | 75.77 | 0.0 | |||||||
| 05 | 11:55 | S 20 G 33 | 16.09 | Fair | CLR | 24 | 11 | 44% | 25 | 75.77 | 0.0 | ||||||
| 05 | 11:35 | S 15 G 28 | 16.09 | Fair | CLR | 24 | 10 | 41% | 25 | 75.77 | 0.0 | ||||||
| 05 | 11:15 | S 20 G 31 | 16.09 | Fair | CLR | 24 | 10 | 41% | 25 | 75.77 | 0.0 | ||||||
| 05 | 10:55 | SW 19 G 33 | 16.09 | Fair | CLR | 23 | 10 | 44% | 75.77 | 0.0 | |||||||
| 05 | 10:35 | SW 19 G 31 | 16.09 | Fair | CLR | 22 | 10 | 47% | 75.79 | 0.0 | |||||||
| 05 | 10:15 | SW 26 G 37 | 16.09 | Fair | CLR | 21 | 10 | 50% | 75.79 | 0.0 | |||||||
| 05 | 09:55 | SW 24 G 39 | 16.09 | Fair | CLR | 20 | 10 | 53% | 75.79 | 0.0 | |||||||
| 05 | 09:35 | SW 24 G 33 | 16.09 | Fair | CLR | 19 | 10 | 56% | 75.79 | 0.0 | |||||||
| 05 | 09:15 | SW 24 G 35 | 16.09 | Fair | CLR | 19 | 10 | 56% | 75.82 | 0.0 | |||||||
| 05 | 08:55 | SW 19 G 35 | 16.09 | Fair | CLR | 18 | 10 | 60% | 75.82 | 0.0 | |||||||
| 05 | 08:35 | S 20 G 31 | 16.09 | Fair | CLR | 17 | 10 | 64% | 75.82 | 0.0 | |||||||
| 05 | 08:15 | SW 24 G 39 | 16.09 | Fair | CLR | 16 | 9 | 63% | 75.82 | 0.0 | |||||||
| 05 | 07:55 | SW 17 | 16.09 | Fair | CLR | 15 | 9 | 68% | 75.82 | 0.0 | |||||||
| 05 | 07:35 | SW 20 G 30 | 16.09 | Fair | CLR | 14 | 9 | 72% | 75.82 | 0.0 | |||||||
| 05 | 07:15 | SW 17 G 31 | 16.09 | Fair | CLR | 13 | 9 | 77% | 75.82 | 0.0 | |||||||
| 05 | 06:55 | SW 13 | 16.09 | A Few Clouds | FEW090 | 13 | 9 | 77% | 75.82 | 0.0 | |||||||
| 05 | 06:35 | SW 13 | 16.09 | Fair | CLR | 12 | 9 | 82% | 75.84 | 0.0 | |||||||
| 05 | 06:15 | SW 11 | 16.09 | Fair | CLR | 12 | 9 | 82% | 75.82 | 0.0 | |||||||
| 05 | 05:55 | SW 19 | 16.09 | A Few Clouds | FEW090 | 11 | 9 | 88% | 75.82 | 0.0 | |||||||
| 05 | 05:35 | SW 15 G 30 | 16.09 | A Few Clouds | FEW090 | 11 | 9 | 88% | 75.82 | 0.0 | |||||||
| 05 | 05:15 | SW 13 | 16.09 | A Few Clouds | FEW060 | 11 | 8 | 82% | 75.82 | 0.0 | |||||||
| 05 | 04:55 | SW 13 | 16.09 | Mostly Cloudy | SCT055 BKN065 | 10 | 8 | 88% | 8 | 75.84 | 0.0 | ||||||
| 05 | 04:35 | SW 9 | 16.09 | Mostly Cloudy | FEW042 BKN050 BKN065 | 10 | 8 | 88% | 9 | 75.82 | 0.0 | ||||||
| 05 | 04:15 | SW 11 | 16.09 | Mostly Cloudy | SCT037 SCT049 BKN060 | 10 | 8 | 88% | 9 | 75.84 | 0.0 | ||||||
| 05 | 03:55 | SW 13 | 16.09 | Mostly Cloudy | SCT039 BKN046 BKN055 | 11 | 8 | 82% | 75.84 | 0.0 | |||||||
| 05 | 03:35 | SW 11 | 16.09 | Mostly Cloudy | FEW034 SCT043 BKN050 | 11 | 8 | 82% | 75.87 | 0.0 | |||||||
| 05 | 03:15 | SW 9 | 16.09 | Mostly Cloudy | FEW035 SCT040 BKN055 | 11 | 8 | 82% | 75.84 | 0.0 | |||||||
| 05 | 02:55 | SW 11 G 20 | 16.09 | Partly Cloudy | SCT038 SCT046 SCT065 | 11 | 8 | 82% | 75.84 | 0.0 | |||||||
| 05 | 02:35 | SW 9 | 16.09 | Mostly Cloudy | SCT036 BKN044 BKN055 | 11 | 8 | 82% | 75.84 | 0.0 | |||||||
| 05 | 02:15 | SW 11 G 28 | 16.09 | Mostly Cloudy | FEW034 BKN041 BKN050 | 11 | 7 | 77% | 75.84 | 0.0 | |||||||
| 05 | 01:55 | Vrbl 11 G 22 | 16.09 | Mostly Cloudy | SCT038 BKN044 BKN049 | 12 | 7 | 72% | 75.84 | 0.0 | |||||||
| 05 | 01:35 | SW 13 G 28 | 16.09 | Mostly Cloudy | SCT038 BKN044 BKN055 | 12 | 7 | 72% | 75.84 | 0.0 | |||||||
| 05 | 01:15 | SW 17 G 30 | 16.09 | Mostly Cloudy | BKN040 BKN047 BKN055 | 12 | 7 | 72% | 75.84 | 0.0 | |||||||
| 05 | 00:55 | SW 13 G 28 | 16.09 | Overcast | SCT036 BKN041 OVC055 | 12 | 7 | 72% | 75.84 | 0.0 | |||||||
| 05 | 00:35 | SW 19 G 28 | 16.09 | Mostly Cloudy | BKN035 BKN045 | 12 | 7 | 72% | 75.87 | 0.0 | |||||||
| 05 | 00:15 | SW 19 | 16.09 | Mostly Cloudy | BKN035 BKN040 BKN050 | 12 | 7 | 72% | 75.87 | 0.0 | |||||||
| 04 | 23:55 | SW 15 G 28 | 16.09 | Mostly Cloudy | BKN034 BKN039 BKN055 | 12 | 7 | 72% | 75.87 | 0.0 | |||||||
| 04 | 23:35 | SW 17 G 37 | 16.09 | Overcast | BKN035 BKN047 OVC055 | 12 | 7 | 72% | 75.84 | 0.0 | |||||||
| 04 | 23:15 | SW 19 G 37 | 16.09 | Mostly Cloudy | BKN032 BKN040 BKN050 | 12 | 6 | 67% | 75.87 | 0.0 | |||||||
| 04 | 22:55 | SW 19 G 33 | 16.09 | Mostly Cloudy | BKN031 BKN039 BKN049 | 12 | 6 | 67% | 75.87 | 0.0 | |||||||
| 04 | 22:35 | SW 22 G 35 | 16.09 | Overcast | BKN030 BKN036 OVC047 | 13 | 6 | 63% | 75.87 | 0.0 | |||||||
| 04 | 22:15 | SW 22 G 35 | 16.09 | Overcast | FEW027 BKN031 OVC055 | 13 | 6 | 63% | 75.87 | 0.0 | |||||||
| 04 | 21:55 | SW 19 G 30 | 16.09 | Overcast | BKN030 BKN040 OVC050 | 13 | 6 | 63% | 75.87 | 0.0 | |||||||
| 04 | 21:35 | SW 19 G 37 | 16.09 | Overcast | BKN030 BKN042 OVC055 | 13 | 6 | 63% | 75.84 | 0.0 | |||||||
| 04 | 21:15 | SW 24 G 37 | 16.09 | Overcast | SCT028 BKN042 OVC060 | 14 | 6 | 59% | 75.82 | 0.0 | |||||||
| 04 | 20:55 | SW 17 G 39 | 16.09 | Overcast | SCT043 BKN048 OVC055 | 14 | 6 | 59% | 75.79 | 0.0 | |||||||
| 04 | 20:35 | SW 30 G 52 | 16.09 | Mostly Cloudy | SCT045 BKN055 BKN070 | 14 | 5 | 55% | 75.77 | 0.0 | |||||||
| 04 | 20:15 | SW 24 G 39 | 16.09 | Fair | CLR | 14 | 4 | 51% | 75.74 | 0.0 | |||||||
| 04 | 19:55 | SW 24 G 41 | 16.09 | Fair | CLR | 15 | 4 | 48% | 75.72 | 0.0 | |||||||
| 04 | 19:35 | SW 19 G 44 | 16.09 | Fair | CLR | 15 | 3 | 45% | 75.72 | 0.0 | |||||||
| 04 | 19:15 | SW 24 G 43 | 16.09 | Fair | CLR | 16 | 3 | 42% | 75.69 | 0.0 | |||||||
| 04 | 18:55 | SW 28 G 44 | 16.09 | Fair | CLR | 17 | 3 | 39% | 75.67 | 0.0 | |||||||
| 04 | 18:35 | SW 20 G 46 | 16.09 | Fair | CLR | 17 | 3 | 39% | 75.64 | 0.0 | |||||||
| 04 | 18:15 | SW 35 G 52 | 16.09 | Fair and Breezy | CLR | 18 | 3 | 37% | 75.62 | 0.0 | |||||||
| 04 | 17:55 | SW 30 G 56 | 16.09 | Fair | CLR | 19 | 3 | 35% | 75.62 | 0.0 | |||||||
| 04 | 17:35 | SW 28 G 52 | 16.09 | Fair | CLR | 19 | 3 | 35% | 75.62 | 0.0 | |||||||
| 04 | 17:15 | SW 26 G 50 | 16.09 | Fair | CLR | 19 | 2 | 32% | 75.62 | 0.0 | |||||||
| 04 | 16:55 | SW 30 G 46 | 16.09 | Fair | CLR | 20 | 2 | 30% | 75.59 | 0.0 | |||||||
| 04 | 16:35 | SW 28 G 52 | 16.09 | Fair | CLR | 20 | 2 | 30% | 75.59 | 0.0 | |||||||
| 04 | 16:15 | SW 31 G 52 | 16.09 | Fair | CLR | 20 | 1 | 28% | 75.59 | 0.0 | |||||||
| 04 | 15:55 | SW 28 G 52 | 16.09 | Fair | CLR | 20 | 1 | 28% | 75.59 | 0.0 | |||||||
| 04 | 15:35 | SW 37 G 54 | 16.09 | Fair and Breezy | CLR | 21 | 1 | 27% | 75.59 | 0.0 | |||||||
| 04 | 15:15 | SW 35 G 54 | 16.09 | Fair and Breezy | CLR | 21 | 1 | 27% | 75.59 | 0.0 | |||||||
| 04 | 14:55 | SW 35 G 54 | 16.09 | Fair and Breezy | CLR | 21 | 0 | 25% | 75.59 | 0.0 | |||||||
| 04 | 14:35 | SW 26 G 56 | 16.09 | Fair | CLR | 21 | -2 | 21% | 75.62 | 0.0 | |||||||
| 04 | 14:15 | W 24 G 44 | 16.09 | Fair | CLR | 21 | -1 | 23% | 75.62 | 0.0 | |||||||
| 04 | 13:55 | SW 26 G 56 | 16.09 | Fair | CLR | 21 | -1 | 23% | 75.62 | 0.0 | |||||||
| 04 | 13:35 | SW 22 G 54 | 16.09 | Fair | CLR | 21 | -1 | 23% | 75.62 | 0.0 | |||||||
| 04 | 13:15 | SW 33 G 59 | 16.09 | Fair and Breezy | CLR | 20 | -1 | 24% | 75.62 | 0.0 | |||||||
| 04 | 12:55 | SW 24 G 48 | 16.09 | Fair | CLR | 20 | -1 | 24% | 75.64 | 0.0 | |||||||
| 04 | 12:35 | SW 30 G 54 | 16.09 | Fair | CLR | 20 | -1 | 24% | 75.67 | 0.0 | |||||||
| 04 | 12:15 | W 22 G 41 | 16.09 | Fair | CLR | 20 | 0 | 26% | 75.69 | 0.0 | |||||||
| 04 | 11:55 | SW 26 G 43 | 16.09 | Fair | CLR | 20 | 0 | 26% | 75.69 | 0.0 | |||||||
| 04 | 11:35 | W 20 G 37 | 16.09 | Fair | CLR | 20 | 0 | 26% | 75.72 | 0.0 | |||||||
| 04 | 11:15 | W 26 G 54 | 16.09 | Fair | CLR | 19 | -1 | 26% | 75.72 | 0.0 | |||||||
| 04 | 10:55 | SW 26 G 41 | 0.00 | Fair | CLR | 19 | -1 | 26% | 75.72 | 0.0 | |||||||
| 04 | 10:35 | SW 26 G 39 | 16.09 | Fair | CLR | 18 | 0 | 30% | 75.77 | 0.0 | |||||||
| 04 | 10:15 | SW 19 G 33 | 16.09 | Fair | CLR | 18 | 1 | 32% | 75.77 | 0.0 | |||||||
| 04 | 09:55 | SW 20 G 31 | 16.09 | Fair | CLR | 17 | 0 | 32% | 75.79 | 0.0 | |||||||
| 04 | 09:35 | W 13 G 30 | 16.09 | Fair | CLR | 16 | 0 | 34% | 75.82 | 0.0 | |||||||
| 04 | 09:15 | W 19 | 16.09 | A Few Clouds | FEW120 | 15 | 0 | 36% | 75.82 | 0.0 | |||||||
| 04 | 08:55 | W 17 G 31 | 16.09 | A Few Clouds | FEW120 | 15 | 0 | 36% | 75.82 | 0.0 | |||||||
| 04 | 08:35 | SW 20 G 33 | 16.09 | Fair | CLR | 14 | 0 | 39% | 75.84 | 0.0 | |||||||
| 04 | 08:15 | SW 19 | 16.09 | Fair | CLR | 12 | 0 | 44% | 75.84 | 0.0 | |||||||
| 04 | 07:55 | Vrbl 7 G 30 | 16.09 | Partly Cloudy | SCT090 | 11 | 0 | 47% | 75.84 | 0.0 | |||||||
| 04 | 07:35 | SW 13 G 26 | 16.09 | Mostly Cloudy | BKN090 | 11 | 0 | 47% | 75.84 | 0.0 | |||||||
| 04 | 07:15 | SW 11 G 22 | 16.09 | Partly Cloudy | SCT095 | 11 | 0 | 47% | 75.84 | 0.0 | |||||||
| 04 | 06:55 | SW 11 | 16.09 | Overcast | SCT075 OVC095 | 9 | 0 | 54% | 8 | 75.87 | 0.0 | ||||||
| 04 | 06:35 | SW 9 | 16.09 | Overcast | OVC075 | 9 | -1 | 50% | 8 | 75.84 | 0.0 | ||||||
| 04 | 06:15 | SW 9 | 16.09 | Overcast | OVC075 | 9 | -1 | 50% | 8 | 75.84 | 0.0 | ||||||
| 04 | 05:55 | SW 7 | 16.09 | Overcast | OVC070 | 8 | -1 | 53% | 7 | 75.84 | 0.0 | ||||||
| 04 | 05:35 | W 7 | 16.09 | Overcast | BKN065 OVC095 | 8 | -2 | 50% | 7 | 75.84 | 0.0 | ||||||
| 04 | 05:15 | W 7 | 16.09 | Overcast | OVC095 | 8 | -2 | 50% | 7 | 75.84 | 0.0 | ||||||
| 04 | 04:55 | Calm | 16.09 | Overcast | SCT070 OVC100 | 8 | -2 | 50% | 75.84 | 0.0 | |||||||
| 04 | 04:35 | SW 7 | 16.09 | Overcast | BKN065 OVC075 | 8 | -2 | 50% | 7 | 75.84 | 0.0 | ||||||
| 04 | 04:15 | SW 7 | 16.09 | Overcast | SCT065 OVC075 | 8 | -2 | 50% | 7 | 75.82 | 0.0 | ||||||
| 04 | 03:55 | SW 6 | 16.09 | Overcast | SCT065 BKN075 OVC095 | 8 | -2 | 50% | 75.82 | 0.0 | |||||||
| 04 | 03:35 | W 7 | 16.09 | Overcast | BKN065 OVC075 | 7 | -2 | 53% | 6 | 75.82 | 0.0 | ||||||
| 04 | 03:15 | W 6 | 16.09 | Overcast | OVC065 | 7 | -2 | 53% | 75.82 | 0.0 | |||||||
| 04 | 02:55 | W 7 | 16.09 | Overcast | OVC070 | 7 | -2 | 53% | 6 | 75.82 | 0.0 | ||||||
| 04 | 02:35 | Vrbl 7 | 16.09 | Overcast | OVC070 | 6 | -2 | 57% | 5 | 75.82 | 0.0 | ||||||
| Date | Time (edt) | Wind (kph) | Vis. (km) | Weather | Sky Cond. | Air | Dwpt | Max. | Min. | Relative Humidity | Wind Chill (°C) | Heat Index (°C) | altimeter (cm) | sea level (mb) | 1 hr | 3 hr | 6 hr |
| 6 hour | |||||||||||||||||
| Temperature (ºC) | Pressure | Precipitation (cm) | |||||||||||||||